sensor_id;sensor_type;location;lat;lon;timestamp;P1;durP1;ratioP1;P2;durP2;ratioP2
23800;SDS011;12081;48.614;10.226;2023-12-14T00:02:03;2.13;;;1.87;;
23800;SDS011;12081;48.614;10.226;2023-12-14T00:04:47;1.87;;;1.70;;
23800;SDS011;12081;48.614;10.226;2023-12-14T00:07:31;1.87;;;1.77;;
23800;SDS011;12081;48.614;10.226;2023-12-14T00:10:15;1.73;;;1.43;;
23800;SDS011;12081;48.614;10.226;2023-12-14T00:13:01;1.53;;;1.43;;
23800;SDS011;12081;48.614;10.226;2023-12-14T00:15:47;1.57;;;1.20;;
23800;SDS011;12081;48.614;10.226;2023-12-14T00:18:34;1.43;;;1.33;;
23800;SDS011;12081;48.614;10.226;2023-12-14T00:21:19;1.83;;;1.20;;
23800;SDS011;12081;48.614;10.226;2023-12-14T00:24:03;1.20;;;1.10;;
23800;SDS011;12081;48.614;10.226;2023-12-14T00:26:47;1.53;;;0.90;;
23800;SDS011;12081;48.614;10.226;2023-12-14T00:29:31;1.10;;;1.00;;
23800;SDS011;12081;48.614;10.226;2023-12-14T00:32:15;1.00;;;0.90;;
23800;SDS011;12081;48.614;10.226;2023-12-14T00:34:59;0.80;;;0.80;;
23800;SDS011;12081;48.614;10.226;2023-12-14T00:37:43;1.20;;;1.10;;
23800;SDS011;12081;48.614;10.226;2023-12-14T00:40:27;1.17;;;1.07;;
23800;SDS011;12081;48.614;10.226;2023-12-14T00:43:11;1.30;;;1.00;;
23800;SDS011;12081;48.614;10.226;2023-12-14T00:45:55;1.23;;;1.13;;
23800;SDS011;12081;48.614;10.226;2023-12-14T00:48:39;1.07;;;0.97;;
23800;SDS011;12081;48.614;10.226;2023-12-14T00:51:23;1.10;;;1.00;;
23800;SDS011;12081;48.614;10.226;2023-12-14T00:54:07;1.20;;;0.90;;
23800;SDS011;12081;48.614;10.226;2023-12-14T00:56:51;1.83;;;1.00;;
23800;SDS011;12081;48.614;10.226;2023-12-14T00:59:35;1.10;;;1.00;;
23800;SDS011;12081;48.614;10.226;2023-12-14T01:02:19;1.00;;;0.80;;
23800;SDS011;12081;48.614;10.226;2023-12-14T01:05:03;1.10;;;1.00;;
23800;SDS011;12081;48.614;10.226;2023-12-14T01:07:48;2.17;;;1.00;;
23800;SDS011;12081;48.614;10.226;2023-12-14T01:10:32;0.97;;;0.93;;
23800;SDS011;12081;48.614;10.226;2023-12-14T01:13:17;1.50;;;1.13;;
23800;SDS011;12081;48.614;10.226;2023-12-14T01:16:01;2.27;;;1.30;;
23800;SDS011;12081;48.614;10.226;2023-12-14T01:18:45;1.93;;;1.30;;
23800;SDS011;12081;48.614;10.226;2023-12-14T01:21:29;1.73;;;1.40;;
23800;SDS011;12081;48.614;10.226;2023-12-14T01:24:13;1.83;;;1.60;;
23800;SDS011;12081;48.614;10.226;2023-12-14T01:26:58;2.27;;;1.20;;
23800;SDS011;12081;48.614;10.226;2023-12-14T01:29:42;1.60;;;1.00;;
23800;SDS011;12081;48.614;10.226;2023-12-14T01:32:26;1.37;;;1.13;;
23800;SDS011;12081;48.614;10.226;2023-12-14T01:35:10;1.03;;;0.93;;
23800;SDS011;12081;48.614;10.226;2023-12-14T01:37:54;1.60;;;1.40;;
23800;SDS011;12081;48.614;10.226;2023-12-14T01:40:39;0.80;;;0.80;;
23800;SDS011;12081;48.614;10.226;2023-12-14T01:43:23;1.67;;;1.07;;
23800;SDS011;12081;48.614;10.226;2023-12-14T01:46:07;1.10;;;0.93;;
23800;SDS011;12081;48.614;10.226;2023-12-14T01:48:51;1.33;;;1.07;;
23800;SDS011;12081;48.614;10.226;2023-12-14T01:51:36;2.33;;;1.20;;
23800;SDS011;12081;48.614;10.226;2023-12-14T01:54:21;2.80;;;1.30;;
23800;SDS011;12081;48.614;10.226;2023-12-14T01:57:05;2.27;;;1.77;;
23800;SDS011;12081;48.614;10.226;2023-12-14T01:59:49;3.77;;;1.90;;
23800;SDS011;12081;48.614;10.226;2023-12-14T02:02:33;1.60;;;1.50;;
23800;SDS011;12081;48.614;10.226;2023-12-14T02:05:18;2.30;;;2.10;;
23800;SDS011;12081;48.614;10.226;2023-12-14T02:08:04;2.20;;;2.00;;
23800;SDS011;12081;48.614;10.226;2023-12-14T02:10:48;3.20;;;2.10;;
23800;SDS011;12081;48.614;10.226;2023-12-14T02:13:32;3.03;;;2.50;;
23800;SDS011;12081;48.614;10.226;2023-12-14T02:16:17;2.80;;;2.40;;
23800;SDS011;12081;48.614;10.226;2023-12-14T02:19:01;3.37;;;2.23;;
23800;SDS011;12081;48.614;10.226;2023-12-14T02:21:45;4.27;;;2.70;;
23800;SDS011;12081;48.614;10.226;2023-12-14T02:24:29;3.13;;;2.83;;
23800;SDS011;12081;48.614;10.226;2023-12-14T02:27:13;4.10;;;2.40;;
23800;SDS011;12081;48.614;10.226;2023-12-14T02:29:57;4.10;;;2.97;;
23800;SDS011;12081;48.614;10.226;2023-12-14T02:32:41;3.30;;;2.40;;
23800;SDS011;12081;48.614;10.226;2023-12-14T02:35:26;2.83;;;2.57;;
23800;SDS011;12081;48.614;10.226;2023-12-14T02:38:10;2.93;;;2.50;;
23800;SDS011;12081;48.614;10.226;2023-12-14T02:40:54;3.10;;;2.67;;
23800;SDS011;12081;48.614;10.226;2023-12-14T02:43:38;5.37;;;3.00;;
23800;SDS011;12081;48.614;10.226;2023-12-14T02:46:24;3.37;;;3.07;;
23800;SDS011;12081;48.614;10.226;2023-12-14T02:49:08;3.13;;;2.83;;
23800;SDS011;12081;48.614;10.226;2023-12-14T02:51:52;3.33;;;2.70;;
23800;SDS011;12081;48.614;10.226;2023-12-14T02:54:38;3.33;;;2.87;;
23800;SDS011;12081;48.614;10.226;2023-12-14T02:57:22;3.70;;;3.00;;
23800;SDS011;12081;48.614;10.226;2023-12-14T03:00:07;4.83;;;3.37;;
23800;SDS011;12081;48.614;10.226;2023-12-14T03:02:51;5.10;;;3.57;;
23800;SDS011;12081;48.614;10.226;2023-12-14T03:05:36;4.20;;;3.80;;
23800;SDS011;12081;48.614;10.226;2023-12-14T03:08:19;3.90;;;3.40;;
23800;SDS011;12081;48.614;10.226;2023-12-14T03:11:03;3.63;;;3.27;;
23800;SDS011;12081;48.614;10.226;2023-12-14T03:13:47;5.13;;;4.43;;
23800;SDS011;12081;48.614;10.226;2023-12-14T03:16:31;4.73;;;4.17;;
23800;SDS011;12081;48.614;10.226;2023-12-14T03:19:15;6.07;;;4.40;;
23800;SDS011;12081;48.614;10.226;2023-12-14T03:22:00;5.30;;;4.00;;
23800;SDS011;12081;48.614;10.226;2023-12-14T03:24:44;6.40;;;4.33;;
23800;SDS011;12081;48.614;10.226;2023-12-14T03:27:28;5.57;;;4.30;;
23800;SDS011;12081;48.614;10.226;2023-12-14T03:30:12;6.20;;;4.03;;
23800;SDS011;12081;48.614;10.226;2023-12-14T03:32:57;6.50;;;4.33;;
23800;SDS011;12081;48.614;10.226;2023-12-14T03:35:41;4.30;;;3.90;;
23800;SDS011;12081;48.614;10.226;2023-12-14T03:38:31;5.23;;;3.90;;
23800;SDS011;12081;48.614;10.226;2023-12-14T03:41:16;5.37;;;3.87;;
23800;SDS011;12081;48.614;10.226;2023-12-14T03:44:00;5.73;;;4.27;;
23800;SDS011;12081;48.614;10.226;2023-12-14T03:46:45;4.90;;;3.90;;
23800;SDS011;12081;48.614;10.226;2023-12-14T03:49:29;8.20;;;4.33;;
23800;SDS011;12081;48.614;10.226;2023-12-14T03:52:13;5.00;;;4.30;;
23800;SDS011;12081;48.614;10.226;2023-12-14T03:54:57;3.83;;;3.47;;
23800;SDS011;12081;48.614;10.226;2023-12-14T03:57:41;4.70;;;3.20;;
23800;SDS011;12081;48.614;10.226;2023-12-14T04:00:26;4.60;;;2.77;;
23800;SDS011;12081;48.614;10.226;2023-12-14T04:03:10;5.00;;;3.23;;
23800;SDS011;12081;48.614;10.226;2023-12-14T04:05:54;4.90;;;2.57;;
23800;SDS011;12081;48.614;10.226;2023-12-14T04:08:38;5.37;;;3.40;;
23800;SDS011;12081;48.614;10.226;2023-12-14T04:11:23;3.30;;;3.00;;
23800;SDS011;12081;48.614;10.226;2023-12-14T04:14:07;4.27;;;3.00;;
23800;SDS011;12081;48.614;10.226;2023-12-14T04:16:54;5.73;;;2.93;;
23800;SDS011;12081;48.614;10.226;2023-12-14T04:19:39;5.93;;;3.30;;
23800;SDS011;12081;48.614;10.226;2023-12-14T04:22:23;5.67;;;2.83;;
23800;SDS011;12081;48.614;10.226;2023-12-14T04:25:07;5.57;;;3.10;;
23800;SDS011;12081;48.614;10.226;2023-12-14T04:27:52;5.27;;;3.67;;
23800;SDS011;12081;48.614;10.226;2023-12-14T04:30:36;4.87;;;3.40;;
23800;SDS011;12081;48.614;10.226;2023-12-14T04:33:20;3.80;;;3.40;;
23800;SDS011;12081;48.614;10.226;2023-12-14T04:36:04;5.30;;;4.80;;
23800;SDS011;12081;48.614;10.226;2023-12-14T04:38:48;4.40;;;4.00;;
23800;SDS011;12081;48.614;10.226;2023-12-14T04:41:33;4.10;;;3.50;;
23800;SDS011;12081;48.614;10.226;2023-12-14T04:44:17;6.50;;;3.73;;
23800;SDS011;12081;48.614;10.226;2023-12-14T04:47:01;3.67;;;3.37;;
23800;SDS011;12081;48.614;10.226;2023-12-14T04:49:45;4.37;;;3.33;;
23800;SDS011;12081;48.614;10.226;2023-12-14T04:52:29;7.00;;;3.50;;
23800;SDS011;12081;48.614;10.226;2023-12-14T04:55:13;6.17;;;3.40;;
23800;SDS011;12081;48.614;10.226;2023-12-14T04:57:57;4.77;;;3.30;;
23800;SDS011;12081;48.614;10.226;2023-12-14T05:00:41;7.43;;;3.60;;
23800;SDS011;12081;48.614;10.226;2023-12-14T05:03:26;5.37;;;3.40;;
23800;SDS011;12081;48.614;10.226;2023-12-14T05:06:10;7.63;;;3.23;;
23800;SDS011;12081;48.614;10.226;2023-12-14T05:08:54;4.77;;;3.37;;
23800;SDS011;12081;48.614;10.226;2023-12-14T05:11:39;6.53;;;3.40;;
23800;SDS011;12081;48.614;10.226;2023-12-14T05:14:24;3.10;;;2.80;;
23800;SDS011;12081;48.614;10.226;2023-12-14T05:17:08;4.13;;;3.10;;
23800;SDS011;12081;48.614;10.226;2023-12-14T05:19:52;5.83;;;3.40;;
23800;SDS011;12081;48.614;10.226;2023-12-14T05:22:36;5.60;;;3.40;;
23800;SDS011;12081;48.614;10.226;2023-12-14T05:25:21;4.80;;;3.40;;
23800;SDS011;12081;48.614;10.226;2023-12-14T05:28:05;5.67;;;3.17;;
23800;SDS011;12081;48.614;10.226;2023-12-14T05:30:49;7.80;;;3.97;;
23800;SDS011;12081;48.614;10.226;2023-12-14T05:33:39;4.27;;;3.70;;
23800;SDS011;12081;48.614;10.226;2023-12-14T05:36:24;5.90;;;3.80;;
23800;SDS011;12081;48.614;10.226;2023-12-14T05:39:08;4.63;;;3.50;;
23800;SDS011;12081;48.614;10.226;2023-12-14T05:41:53;4.67;;;3.40;;
23800;SDS011;12081;48.614;10.226;2023-12-14T05:44:37;9.50;;;4.47;;
23800;SDS011;12081;48.614;10.226;2023-12-14T05:47:22;7.20;;;4.17;;
23800;SDS011;12081;48.614;10.226;2023-12-14T05:50:08;9.07;;;5.33;;
23800;SDS011;12081;48.614;10.226;2023-12-14T05:52:53;17.27;;;9.30;;
23800;SDS011;12081;48.614;10.226;2023-12-14T05:55:37;36.20;;;20.37;;
23800;SDS011;12081;48.614;10.226;2023-12-14T05:58:23;8.30;;;5.83;;
23800;SDS011;12081;48.614;10.226;2023-12-14T06:01:08;8.83;;;4.23;;
23800;SDS011;12081;48.614;10.226;2023-12-14T06:03:52;6.43;;;4.80;;
23800;SDS011;12081;48.614;10.226;2023-12-14T06:06:37;10.10;;;7.87;;
23800;SDS011;12081;48.614;10.226;2023-12-14T06:09:22;5.90;;;4.50;;
23800;SDS011;12081;48.614;10.226;2023-12-14T06:12:12;7.93;;;5.70;;
23800;SDS011;12081;48.614;10.226;2023-12-14T06:14:57;8.97;;;7.00;;
23800;SDS011;12081;48.614;10.226;2023-12-14T06:17:41;6.07;;;4.13;;
23800;SDS011;12081;48.614;10.226;2023-12-14T06:20:26;7.50;;;4.00;;
23800;SDS011;12081;48.614;10.226;2023-12-14T06:23:10;11.83;;;4.37;;
23800;SDS011;12081;48.614;10.226;2023-12-14T06:25:54;6.57;;;4.33;;
23800;SDS011;12081;48.614;10.226;2023-12-14T06:28:38;4.53;;;3.53;;
23800;SDS011;12081;48.614;10.226;2023-12-14T06:31:23;7.00;;;4.43;;
23800;SDS011;12081;48.614;10.226;2023-12-14T06:34:07;5.23;;;4.20;;
23800;SDS011;12081;48.614;10.226;2023-12-14T06:36:51;5.97;;;4.33;;
23800;SDS011;12081;48.614;10.226;2023-12-14T06:39:35;6.67;;;5.00;;
23800;SDS011;12081;48.614;10.226;2023-12-14T06:42:19;4.87;;;4.30;;
23800;SDS011;12081;48.614;10.226;2023-12-14T06:45:05;5.97;;;4.20;;
23800;SDS011;12081;48.614;10.226;2023-12-14T06:47:49;6.07;;;4.30;;
23800;SDS011;12081;48.614;10.226;2023-12-14T06:50:33;6.20;;;3.80;;
23800;SDS011;12081;48.614;10.226;2023-12-14T06:53:17;9.03;;;4.37;;
23800;SDS011;12081;48.614;10.226;2023-12-14T06:56:01;7.83;;;5.63;;
23800;SDS011;12081;48.614;10.226;2023-12-14T06:58:46;6.20;;;4.83;;
23800;SDS011;12081;48.614;10.226;2023-12-14T07:01:33;7.90;;;5.80;;
23800;SDS011;12081;48.614;10.226;2023-12-14T07:04:17;8.20;;;7.40;;
23800;SDS011;12081;48.614;10.226;2023-12-14T07:07:03;5.87;;;4.50;;
23800;SDS011;12081;48.614;10.226;2023-12-14T07:09:47;5.77;;;4.07;;
23800;SDS011;12081;48.614;10.226;2023-12-14T07:12:31;5.80;;;3.90;;
23800;SDS011;12081;48.614;10.226;2023-12-14T07:15:15;5.73;;;3.77;;
23800;SDS011;12081;48.614;10.226;2023-12-14T07:17:59;5.73;;;4.63;;
23800;SDS011;12081;48.614;10.226;2023-12-14T07:20:43;6.37;;;4.27;;
23800;SDS011;12081;48.614;10.226;2023-12-14T07:23:27;9.87;;;6.47;;
23800;SDS011;12081;48.614;10.226;2023-12-14T07:26:12;6.57;;;4.97;;
23800;SDS011;12081;48.614;10.226;2023-12-14T07:28:56;6.93;;;4.93;;
23800;SDS011;12081;48.614;10.226;2023-12-14T07:31:41;6.73;;;4.60;;
23800;SDS011;12081;48.614;10.226;2023-12-14T07:34:25;5.30;;;4.27;;
23800;SDS011;12081;48.614;10.226;2023-12-14T07:37:11;5.70;;;4.37;;
23800;SDS011;12081;48.614;10.226;2023-12-14T07:39:56;5.67;;;4.00;;
23800;SDS011;12081;48.614;10.226;2023-12-14T07:42:41;7.13;;;4.60;;
23800;SDS011;12081;48.614;10.226;2023-12-14T07:45:26;5.90;;;4.33;;
23800;SDS011;12081;48.614;10.226;2023-12-14T07:48:10;5.10;;;3.90;;
23800;SDS011;12081;48.614;10.226;2023-12-14T07:50:54;7.97;;;4.43;;
23800;SDS011;12081;48.614;10.226;2023-12-14T07:53:38;7.07;;;4.43;;
23800;SDS011;12081;48.614;10.226;2023-12-14T07:56:22;4.90;;;4.37;;
23800;SDS011;12081;48.614;10.226;2023-12-14T07:59:09;7.37;;;4.77;;
23800;SDS011;12081;48.614;10.226;2023-12-14T08:01:54;7.47;;;5.00;;
23800;SDS011;12081;48.614;10.226;2023-12-14T08:04:38;7.40;;;4.63;;
23800;SDS011;12081;48.614;10.226;2023-12-14T08:07:23;8.47;;;5.70;;
23800;SDS011;12081;48.614;10.226;2023-12-14T08:10:12;6.13;;;4.93;;
23800;SDS011;12081;48.614;10.226;2023-12-14T08:12:56;7.50;;;4.60;;
23800;SDS011;12081;48.614;10.226;2023-12-14T08:15:40;8.93;;;4.57;;
23800;SDS011;12081;48.614;10.226;2023-12-14T08:18:24;5.83;;;4.73;;
23800;SDS011;12081;48.614;10.226;2023-12-14T08:21:08;10.30;;;5.17;;
23800;SDS011;12081;48.614;10.226;2023-12-14T08:23:52;10.20;;;4.97;;
23800;SDS011;12081;48.614;10.226;2023-12-14T08:26:36;7.20;;;4.80;;
23800;SDS011;12081;48.614;10.226;2023-12-14T08:29:21;8.50;;;5.23;;
23800;SDS011;12081;48.614;10.226;2023-12-14T08:32:06;8.17;;;5.50;;
23800;SDS011;12081;48.614;10.226;2023-12-14T08:34:50;7.90;;;5.90;;
23800;SDS011;12081;48.614;10.226;2023-12-14T08:37:36;6.50;;;5.30;;
23800;SDS011;12081;48.614;10.226;2023-12-14T08:40:20;7.07;;;5.47;;
23800;SDS011;12081;48.614;10.226;2023-12-14T08:43:04;6.00;;;5.13;;
23800;SDS011;12081;48.614;10.226;2023-12-14T08:45:48;6.23;;;4.73;;
23800;SDS011;12081;48.614;10.226;2023-12-14T08:48:32;4.30;;;3.80;;
23800;SDS011;12081;48.614;10.226;2023-12-14T08:51:16;5.80;;;4.57;;
23800;SDS011;12081;48.614;10.226;2023-12-14T08:57:13;5.73;;;4.03;;
23800;SDS011;12081;48.614;10.226;2023-12-14T08:59:57;4.57;;;3.97;;
23800;SDS011;12081;48.614;10.226;2023-12-14T09:02:41;13.03;;;4.23;;
23800;SDS011;12081;48.614;10.226;2023-12-14T09:05:27;14.60;;;3.00;;
23800;SDS011;12081;48.614;10.226;2023-12-14T09:08:12;2.63;;;2.07;;
23800;SDS011;12081;48.614;10.226;2023-12-14T09:10:56;2.07;;;1.83;;
23800;SDS011;12081;48.614;10.226;2023-12-14T09:13:40;2.33;;;2.13;;
23800;SDS011;12081;48.614;10.226;2023-12-14T09:16:25;2.80;;;2.40;;
23800;SDS011;12081;48.614;10.226;2023-12-14T09:19:10;2.70;;;2.50;;
23800;SDS011;12081;48.614;10.226;2023-12-14T09:21:54;2.87;;;2.67;;
23800;SDS011;12081;48.614;10.226;2023-12-14T09:24:38;3.93;;;2.60;;
23800;SDS011;12081;48.614;10.226;2023-12-14T09:27:23;2.17;;;1.97;;
23800;SDS011;12081;48.614;10.226;2023-12-14T09:30:07;2.60;;;2.40;;
23800;SDS011;12081;48.614;10.226;2023-12-14T09:32:52;3.03;;;2.40;;
23800;SDS011;12081;48.614;10.226;2023-12-14T09:35:37;2.67;;;2.17;;
23800;SDS011;12081;48.614;10.226;2023-12-14T09:38:21;2.00;;;1.80;;
23800;SDS011;12081;48.614;10.226;2023-12-14T09:41:05;1.83;;;1.70;;
23800;SDS011;12081;48.614;10.226;2023-12-14T09:43:51;3.17;;;2.13;;
23800;SDS011;12081;48.614;10.226;2023-12-14T09:46:36;2.60;;;2.40;;
23800;SDS011;12081;48.614;10.226;2023-12-14T09:49:21;2.50;;;2.30;;
23800;SDS011;12081;48.614;10.226;2023-12-14T09:52:08;2.77;;;2.30;;
23800;SDS011;12081;48.614;10.226;2023-12-14T09:54:53;2.40;;;2.20;;
23800;SDS011;12081;48.614;10.226;2023-12-14T09:57:37;4.43;;;2.70;;
23800;SDS011;12081;48.614;10.226;2023-12-14T10:00:34;2.70;;;2.40;;
23800;SDS011;12081;48.614;10.226;2023-12-14T10:03:23;5.07;;;2.90;;
23800;SDS011;12081;48.614;10.226;2023-12-14T10:06:12;3.00;;;2.70;;
23800;SDS011;12081;48.614;10.226;2023-12-14T10:08:56;3.90;;;2.60;;
23800;SDS011;12081;48.614;10.226;2023-12-14T10:11:40;4.20;;;3.13;;
23800;SDS011;12081;48.614;10.226;2023-12-14T10:14:26;5.23;;;3.43;;
23800;SDS011;12081;48.614;10.226;2023-12-14T10:17:20;4.13;;;3.73;;
23800;SDS011;12081;48.614;10.226;2023-12-14T10:20:08;4.67;;;3.53;;
23800;SDS011;12081;48.614;10.226;2023-12-14T10:22:53;5.10;;;3.70;;
23800;SDS011;12081;48.614;10.226;2023-12-14T10:25:39;4.60;;;3.73;;
23800;SDS011;12081;48.614;10.226;2023-12-14T10:28:23;7.40;;;4.27;;
23800;SDS011;12081;48.614;10.226;2023-12-14T10:31:08;6.17;;;4.07;;
23800;SDS011;12081;48.614;10.226;2023-12-14T10:33:53;4.90;;;3.97;;
23800;SDS011;12081;48.614;10.226;2023-12-14T10:36:38;6.60;;;4.17;;
23800;SDS011;12081;48.614;10.226;2023-12-14T10:39:22;9.10;;;4.37;;
23800;SDS011;12081;48.614;10.226;2023-12-14T10:42:08;8.50;;;4.33;;
23800;SDS011;12081;48.614;10.226;2023-12-14T10:44:52;6.10;;;4.03;;
23800;SDS011;12081;48.614;10.226;2023-12-14T10:47:45;5.57;;;4.47;;
23800;SDS011;12081;48.614;10.226;2023-12-14T10:50:30;6.13;;;4.53;;
23800;SDS011;12081;48.614;10.226;2023-12-14T10:53:15;8.13;;;4.30;;
23800;SDS011;12081;48.614;10.226;2023-12-14T10:56:00;7.33;;;4.87;;
23800;SDS011;12081;48.614;10.226;2023-12-14T10:58:54;5.27;;;4.53;;
23800;SDS011;12081;48.614;10.226;2023-12-14T11:01:40;9.03;;;4.90;;
23800;SDS011;12081;48.614;10.226;2023-12-14T11:04:25;7.00;;;4.50;;
23800;SDS011;12081;48.614;10.226;2023-12-14T11:07:11;7.80;;;4.37;;
23800;SDS011;12081;48.614;10.226;2023-12-14T11:09:55;5.37;;;4.00;;
23800;SDS011;12081;48.614;10.226;2023-12-14T11:15:35;7.63;;;4.47;;
23800;SDS011;12081;48.614;10.226;2023-12-14T11:18:21;8.63;;;5.00;;
23800;SDS011;12081;48.614;10.226;2023-12-14T11:21:06;7.37;;;4.90;;
23800;SDS011;12081;48.614;10.226;2023-12-14T11:23:50;7.07;;;5.17;;
23800;SDS011;12081;48.614;10.226;2023-12-14T11:26:34;8.03;;;5.03;;
23800;SDS011;12081;48.614;10.226;2023-12-14T11:29:19;7.20;;;5.03;;
23800;SDS011;12081;48.614;10.226;2023-12-14T11:32:05;6.30;;;4.47;;
23800;SDS011;12081;48.614;10.226;2023-12-14T11:34:50;5.60;;;4.57;;
23800;SDS011;12081;48.614;10.226;2023-12-14T11:37:34;6.07;;;3.97;;
23800;SDS011;12081;48.614;10.226;2023-12-14T11:40:20;5.93;;;3.67;;
23800;SDS011;12081;48.614;10.226;2023-12-14T11:43:07;4.67;;;2.73;;
23800;SDS011;12081;48.614;10.226;2023-12-14T11:45:52;7.63;;;3.03;;
23800;SDS011;12081;48.614;10.226;2023-12-14T11:48:39;3.70;;;2.70;;
23800;SDS011;12081;48.614;10.226;2023-12-14T11:51:23;3.77;;;2.63;;
23800;SDS011;12081;48.614;10.226;2023-12-14T11:54:09;5.03;;;3.33;;
23800;SDS011;12081;48.614;10.226;2023-12-14T11:56:53;3.80;;;2.73;;
23800;SDS011;12081;48.614;10.226;2023-12-14T11:59:37;4.53;;;2.67;;
23800;SDS011;12081;48.614;10.226;2023-12-14T12:02:25;3.10;;;2.07;;
23800;SDS011;12081;48.614;10.226;2023-12-14T12:05:09;4.00;;;2.00;;
23800;SDS011;12081;48.614;10.226;2023-12-14T12:08:02;3.37;;;1.83;;
23800;SDS011;12081;48.614;10.226;2023-12-14T12:10:47;3.10;;;1.97;;
23800;SDS011;12081;48.614;10.226;2023-12-14T12:13:34;2.90;;;1.70;;
23800;SDS011;12081;48.614;10.226;2023-12-14T12:16:18;2.83;;;1.83;;
23800;SDS011;12081;48.614;10.226;2023-12-14T12:19:02;3.27;;;1.93;;
23800;SDS011;12081;48.614;10.226;2023-12-14T12:21:46;5.27;;;2.20;;
23800;SDS011;12081;48.614;10.226;2023-12-14T12:24:30;3.77;;;2.13;;
23800;SDS011;12081;48.614;10.226;2023-12-14T12:27:14;3.00;;;1.83;;
23800;SDS011;12081;48.614;10.226;2023-12-14T12:29:58;2.83;;;1.87;;
23800;SDS011;12081;48.614;10.226;2023-12-14T12:32:42;2.80;;;1.67;;
23800;SDS011;12081;48.614;10.226;2023-12-14T12:35:27;4.27;;;1.70;;
23800;SDS011;12081;48.614;10.226;2023-12-14T12:38:14;2.47;;;1.13;;
23800;SDS011;12081;48.614;10.226;2023-12-14T12:40:59;2.23;;;1.13;;
23800;SDS011;12081;48.614;10.226;2023-12-14T12:43:44;5.60;;;1.30;;
23800;SDS011;12081;48.614;10.226;2023-12-14T12:46:28;2.83;;;0.90;;
23800;SDS011;12081;48.614;10.226;2023-12-14T12:49:12;2.70;;;1.27;;
23800;SDS011;12081;48.614;10.226;2023-12-14T12:51:56;3.67;;;1.30;;
23800;SDS011;12081;48.614;10.226;2023-12-14T12:54:40;4.27;;;1.00;;
23800;SDS011;12081;48.614;10.226;2023-12-14T12:57:24;3.43;;;1.47;;
23800;SDS011;12081;48.614;10.226;2023-12-14T13:00:08;2.30;;;0.90;;
23800;SDS011;12081;48.614;10.226;2023-12-14T13:02:56;2.40;;;1.00;;
23800;SDS011;12081;48.614;10.226;2023-12-14T13:05:40;2.43;;;1.10;;
23800;SDS011;12081;48.614;10.226;2023-12-14T13:08:26;2.70;;;1.43;;
23800;SDS011;12081;48.614;10.226;2023-12-14T13:11:09;2.37;;;1.30;;
23800;SDS011;12081;48.614;10.226;2023-12-14T13:13:53;4.63;;;1.70;;
23800;SDS011;12081;48.614;10.226;2023-12-14T13:16:38;4.37;;;1.70;;
23800;SDS011;12081;48.614;10.226;2023-12-14T13:19:22;2.50;;;1.50;;
23800;SDS011;12081;48.614;10.226;2023-12-14T13:22:07;5.63;;;2.17;;
23800;SDS011;12081;48.614;10.226;2023-12-14T13:24:51;8.43;;;1.90;;
23800;SDS011;12081;48.614;10.226;2023-12-14T13:27:35;3.07;;;1.93;;
23800;SDS011;12081;48.614;10.226;2023-12-14T13:30:19;3.63;;;1.73;;
23800;SDS011;12081;48.614;10.226;2023-12-14T13:33:06;6.10;;;2.80;;
23800;SDS011;12081;48.614;10.226;2023-12-14T13:35:52;13.87;;;6.63;;
23800;SDS011;12081;48.614;10.226;2023-12-14T13:38:36;4.47;;;2.60;;
23800;SDS011;12081;48.614;10.226;2023-12-14T13:41:20;5.37;;;3.40;;
23800;SDS011;12081;48.614;10.226;2023-12-14T13:44:04;6.43;;;3.13;;
23800;SDS011;12081;48.614;10.226;2023-12-14T13:46:48;3.73;;;2.43;;
23800;SDS011;12081;48.614;10.226;2023-12-14T13:49:33;8.07;;;3.17;;
23800;SDS011;12081;48.614;10.226;2023-12-14T13:52:17;7.23;;;3.50;;
23800;SDS011;12081;48.614;10.226;2023-12-14T13:55:02;7.70;;;3.90;;
23800;SDS011;12081;48.614;10.226;2023-12-14T13:57:46;5.53;;;3.20;;
23800;SDS011;12081;48.614;10.226;2023-12-14T14:00:31;4.50;;;3.20;;
23800;SDS011;12081;48.614;10.226;2023-12-14T14:03:18;5.70;;;3.73;;
23800;SDS011;12081;48.614;10.226;2023-12-14T14:06:03;4.43;;;3.20;;
23800;SDS011;12081;48.614;10.226;2023-12-14T14:08:47;5.07;;;3.50;;
23800;SDS011;12081;48.614;10.226;2023-12-14T14:11:31;4.67;;;4.03;;
23800;SDS011;12081;48.614;10.226;2023-12-14T14:14:16;8.20;;;4.63;;
23800;SDS011;12081;48.614;10.226;2023-12-14T14:17:00;30.70;;;18.07;;
23800;SDS011;12081;48.614;10.226;2023-12-14T14:19:44;6.60;;;4.67;;
23800;SDS011;12081;48.614;10.226;2023-12-14T14:22:28;7.60;;;4.13;;
23800;SDS011;12081;48.614;10.226;2023-12-14T14:25:13;7.87;;;4.23;;
23800;SDS011;12081;48.614;10.226;2023-12-14T14:27:57;6.20;;;3.73;;
23800;SDS011;12081;48.614;10.226;2023-12-14T14:30:42;7.60;;;3.60;;
23800;SDS011;12081;48.614;10.226;2023-12-14T14:33:26;6.60;;;4.23;;
23800;SDS011;12081;48.614;10.226;2023-12-14T14:36:10;5.53;;;4.00;;
23800;SDS011;12081;48.614;10.226;2023-12-14T14:38:54;7.13;;;4.30;;
23800;SDS011;12081;48.614;10.226;2023-12-14T14:41:40;9.97;;;4.63;;
23800;SDS011;12081;48.614;10.226;2023-12-14T14:44:24;9.23;;;4.07;;
23800;SDS011;12081;48.614;10.226;2023-12-14T14:47:09;6.63;;;5.00;;
23800;SDS011;12081;48.614;10.226;2023-12-14T14:49:53;8.27;;;4.67;;
23800;SDS011;12081;48.614;10.226;2023-12-14T14:52:40;6.63;;;4.57;;
23800;SDS011;12081;48.614;10.226;2023-12-14T14:55:24;8.00;;;5.13;;
23800;SDS011;12081;48.614;10.226;2023-12-14T14:58:09;9.90;;;5.90;;
23800;SDS011;12081;48.614;10.226;2023-12-14T15:00:53;7.53;;;5.40;;
23800;SDS011;12081;48.614;10.226;2023-12-14T15:03:37;9.93;;;6.20;;
23800;SDS011;12081;48.614;10.226;2023-12-14T15:06:21;8.27;;;5.57;;
23800;SDS011;12081;48.614;10.226;2023-12-14T15:09:06;5.47;;;4.00;;
23800;SDS011;12081;48.614;10.226;2023-12-14T15:11:53;3.63;;;3.03;;
23800;SDS011;12081;48.614;10.226;2023-12-14T15:14:37;4.03;;;2.00;;
23800;SDS011;12081;48.614;10.226;2023-12-14T15:17:21;5.13;;;2.23;;
23800;SDS011;12081;48.614;10.226;2023-12-14T15:20:06;2.20;;;1.90;;
23800;SDS011;12081;48.614;10.226;2023-12-14T15:22:51;3.00;;;1.97;;
23800;SDS011;12081;48.614;10.226;2023-12-14T15:25:35;3.57;;;2.73;;
23800;SDS011;12081;48.614;10.226;2023-12-14T15:28:19;2.90;;;2.20;;
23800;SDS011;12081;48.614;10.226;2023-12-14T15:31:03;3.43;;;2.23;;
23800;SDS011;12081;48.614;10.226;2023-12-14T15:33:47;4.70;;;2.60;;
23800;SDS011;12081;48.614;10.226;2023-12-14T15:36:31;4.87;;;2.40;;
23800;SDS011;12081;48.614;10.226;2023-12-14T15:39:17;3.40;;;2.63;;
23800;SDS011;12081;48.614;10.226;2023-12-14T15:42:01;5.37;;;2.97;;
23800;SDS011;12081;48.614;10.226;2023-12-14T15:44:45;3.27;;;2.43;;
23800;SDS011;12081;48.614;10.226;2023-12-14T15:47:30;3.77;;;2.90;;
23800;SDS011;12081;48.614;10.226;2023-12-14T15:50:14;3.23;;;2.47;;
23800;SDS011;12081;48.614;10.226;2023-12-14T15:52:58;3.80;;;2.77;;
23800;SDS011;12081;48.614;10.226;2023-12-14T15:55:42;4.47;;;2.70;;
23800;SDS011;12081;48.614;10.226;2023-12-14T15:58:26;4.10;;;2.67;;
23800;SDS011;12081;48.614;10.226;2023-12-14T16:01:11;3.60;;;3.00;;
23800;SDS011;12081;48.614;10.226;2023-12-14T16:03:56;4.77;;;2.70;;
23800;SDS011;12081;48.614;10.226;2023-12-14T16:06:40;3.97;;;3.00;;
23800;SDS011;12081;48.614;10.226;2023-12-14T16:09:24;3.97;;;2.90;;
23800;SDS011;12081;48.614;10.226;2023-12-14T16:12:08;4.20;;;2.80;;
23800;SDS011;12081;48.614;10.226;2023-12-14T16:14:52;3.00;;;2.43;;
23800;SDS011;12081;48.614;10.226;2023-12-14T16:17:40;6.00;;;2.57;;
23800;SDS011;12081;48.614;10.226;2023-12-14T16:20:24;3.90;;;2.60;;
23800;SDS011;12081;48.614;10.226;2023-12-14T16:23:09;3.93;;;2.70;;